Time;durP1;ratioP1;P1;durP2;ratioP2;P2;SDS_P1;SDS_P2;PMS_P1;PMS_P2;Temp;Humidity;BMP_temperature;BMP_pressure;BME280_temperature;BME280_humidity;BME280_pressure;Samples;Min_cycle;Max_cycle;Signal;HPM_P1;HPM_P2
2022/04/30 00:01:58;;;;;;;0.10;0.10;;;;;;;;;;5055273;28;20288;-71
2022/04/30 00:04:24;;;;;;;0.10;0.10;;;;;;;;;;5066350;28;20512;-72
2022/04/30 00:06:51;;;;;;;0.10;0.10;;;;;;;;;;5055058;28;20245;-71
2022/04/30 00:09:17;;;;;;;0.10;0.10;;;;;;;;;;5065884;28;20258;-71
2022/04/30 00:11:43;;;;;;;0.00;0.00;;;;;;;;;;5055114;28;20244;-72
2022/04/30 00:14:09;;;;;;;0.10;0.10;;;;;;;;;;5065779;28;20214;-72
2022/04/30 00:16:38;;;;;;;0.10;0.10;;;;;;;;;;5055102;28;20257;-72
2022/04/30 00:19:06;;;;;;;0.10;0.10;;;;;;;;;;5065636;28;20229;-72
2022/04/30 00:21:33;;;;;;;0.00;0.00;;;;;;;;;;5055136;28;20302;-71
2022/04/30 00:23:59;;;;;;;0.10;0.10;;;;;;;;;;5065597;28;20254;-72
2022/04/30 00:26:25;;;;;;;0.10;0.10;;;;;;;;;;5054954;28;20237;-72
2022/04/30 00:28:52;;;;;;;0.10;0.10;;;;;;;;;;5065478;28;20242;-72
2022/04/30 00:31:18;;;;;;;0.10;0.10;;;;;;;;;;5054909;28;20346;-73
2022/04/30 00:33:48;;;;;;;0.10;0.10;;;;;;;;;;5065704;28;20439;-71
2022/04/30 00:36:15;;;;;;;0.10;0.10;;;;;;;;;;5055132;28;20248;-72
2022/04/30 00:38:41;;;;;;;0.10;0.10;;;;;;;;;;5065532;28;20205;-72
2022/04/30 00:41:08;;;;;;;0.00;0.00;;;;;;;;;;5054979;28;20574;-73
2022/04/30 00:43:42;;;;;;;0.00;0.00;;;;;;;;;;5065190;28;20252;-72
2022/04/30 00:46:12;;;;;;;0.10;0.10;;;;;;;;;;5054965;28;20509;-73
2022/04/30 00:48:38;;;;;;;0.10;0.10;;;;;;;;;;5065259;28;20255;-72
2022/04/30 00:51:07;;;;;;;0.10;0.10;;;;;;;;;;5054723;28;20247;-72
2022/04/30 00:53:34;;;;;;;0.10;0.10;;;;;;;;;;5065197;28;20271;-71
2022/04/30 00:56:01;;;;;;;0.10;0.10;;;;;;;;;;5054825;28;20501;-71
2022/04/30 00:58:29;;;;;;;0.10;0.10;;;;;;;;;;5064114;28;20343;-72
2022/04/30 01:00:56;;;;;;;0.10;0.10;;;;;;;;;;5054549;28;20250;-73
2022/04/30 01:03:24;;;;;;;0.10;0.10;;;;;;;;;;5064888;28;20213;-73
2022/04/30 01:05:51;;;;;;;0.10;0.10;;;;;;;;;;5054879;28;20253;-72
2022/04/30 01:08:19;;;;;;;0.10;0.10;;;;;;;;;;5064340;28;20267;-73
2022/04/30 01:10:45;;;;;;;0.10;0.10;;;;;;;;;;5054568;28;20304;-72
2022/04/30 01:13:13;;;;;;;0.10;0.10;;;;;;;;;;5064501;28;20206;-72
2022/04/30 01:15:39;;;;;;;0.10;0.10;;;;;;;;;;5054939;28;20243;-72
2022/04/30 01:18:06;;;;;;;0.10;0.10;;;;;;;;;;5064254;28;20217;-72
2022/04/30 01:20:33;;;;;;;0.10;0.10;;;;;;;;;;5054729;28;20275;-72
2022/04/30 01:23:02;;;;;;;0.10;0.10;;;;;;;;;;5064064;28;20280;-72
2022/04/30 01:25:30;;;;;;;0.10;0.10;;;;;;;;;;5054312;28;20268;-72
2022/04/30 01:27:58;;;;;;;0.10;0.10;;;;;;;;;;5063540;28;20233;-72
2022/04/30 01:30:24;;;;;;;0.10;0.10;;;;;;;;;;5054500;28;20205;-72
2022/04/30 01:38:20;;;;;;;0.10;0.10;;;;;;;;;;5063955;28;20537;-72
2022/04/30 01:40:47;;;;;;;0.00;0.00;;;;;;;;;;5053876;28;20299;-72
2022/04/30 01:43:13;;;;;;;0.10;0.10;;;;;;;;;;5063857;28;20380;-71
2022/04/30 01:45:39;;;;;;;0.10;0.10;;;;;;;;;;5053890;28;20441;-72
2022/04/30 01:48:07;;;;;;;0.10;0.10;;;;;;;;;;5063618;28;20228;-69
2022/04/30 01:50:34;;;;;;;0.10;0.10;;;;;;;;;;5053912;28;20521;-72
2022/04/30 01:53:01;;;;;;;0.00;0.00;;;;;;;;;;5063580;28;20271;-71
2022/04/30 01:55:28;;;;;;;0.10;0.10;;;;;;;;;;5054107;28;20284;-72
2022/04/30 01:57:54;;;;;;;0.10;0.10;;;;;;;;;;5063372;28;20223;-72
2022/04/30 02:00:21;;;;;;;0.10;0.10;;;;;;;;;;5053655;28;20247;-72
2022/04/30 02:02:48;;;;;;;0.00;0.00;;;;;;;;;;5063226;28;20423;-71
2022/04/30 02:05:14;;;;;;;0.00;0.00;;;;;;;;;;5053940;28;20219;-73
2022/04/30 02:07:42;;;;;;;0.10;0.10;;;;;;;;;;5062857;28;20282;-71
2022/04/30 02:10:08;;;;;;;0.10;0.10;;;;;;;;;;5053128;28;20261;-71
2022/04/30 02:12:36;;;;;;;0.10;0.10;;;;;;;;;;5063031;28;20273;-71
2022/04/30 02:15:02;;;;;;;0.10;0.10;;;;;;;;;;5064039;28;20250;-71
2022/04/30 02:17:29;;;;;;;0.10;0.10;;;;;;;;;;5052458;28;20460;-72
2022/04/30 02:22:46;;;;;;;0.10;0.10;;;;;;;;;;5047429;28;20246;-72
2022/04/30 02:25:13;;;;;;;0.10;0.10;;;;;;;;;;5053603;28;20205;-71
2022/04/30 02:27:41;;;;;;;0.10;0.10;;;;;;;;;;5062483;28;20227;-71
2022/04/30 02:30:09;;;;;;;0.00;0.00;;;;;;;;;;5053225;28;20204;-71
2022/04/30 02:32:39;;;;;;;0.00;0.00;;;;;;;;;;5062435;28;20231;-71
2022/04/30 02:35:06;;;;;;;0.10;0.10;;;;;;;;;;5058323;28;20204;-72
2022/04/30 02:37:32;;;;;;;0.10;0.10;;;;;;;;;;5062282;28;20212;-72
2022/04/30 02:39:58;;;;;;;0.10;0.10;;;;;;;;;;5063460;28;20231;-72
2022/04/30 02:42:25;;;;;;;0.10;0.10;;;;;;;;;;5051924;28;20242;-72
2022/04/30 02:44:53;;;;;;;0.10;0.10;;;;;;;;;;5063147;28;20246;-71
2022/04/30 02:47:19;;;;;;;0.10;0.10;;;;;;;;;;5051951;28;20503;-71
2022/04/30 02:49:46;;;;;;;0.10;0.10;;;;;;;;;;5063448;28;20314;-71
2022/04/30 02:52:12;;;;;;;0.10;0.10;;;;;;;;;;5051962;28;20239;-71
2022/04/30 02:54:39;;;;;;;0.10;0.10;;;;;;;;;;5063263;28;20398;-72
2022/04/30 02:57:05;;;;;;;0.10;0.10;;;;;;;;;;5051402;28;20235;-72
2022/04/30 03:02:16;;;;;;;0.10;0.10;;;;;;;;;;5051808;28;20452;-71
2022/04/30 03:04:42;;;;;;;0.10;0.10;;;;;;;;;;5063243;28;20407;-72
2022/04/30 03:07:11;;;;;;;0.10;0.10;;;;;;;;;;5051541;28;20558;-71
2022/04/30 03:09:37;;;;;;;0.10;0.10;;;;;;;;;;5062889;28;20195;-71
2022/04/30 03:12:04;;;;;;;0.10;0.10;;;;;;;;;;5051756;28;20493;-71
2022/04/30 03:14:30;;;;;;;0.10;0.10;;;;;;;;;;5062638;28;20208;-71
2022/04/30 03:22:26;;;;;;;0.10;0.10;;;;;;;;;;5051723;28;20287;-71
2022/04/30 03:24:52;;;;;;;0.10;0.10;;;;;;;;;;5062941;28;20208;-72
2022/04/30 03:27:18;;;;;;;0.10;0.10;;;;;;;;;;5051364;28;20241;-72
2022/04/30 03:29:46;;;;;;;0.10;0.10;;;;;;;;;;5062971;28;20205;-72
2022/04/30 03:32:12;;;;;;;0.03;0.03;;;;;;;;;;5051525;28;20567;-72
2022/04/30 03:34:39;;;;;;;0.10;0.10;;;;;;;;;;5062648;28;20246;-72
2022/04/30 03:37:06;;;;;;;0.10;0.10;;;;;;;;;;5051295;28;20285;-71
2022/04/30 03:39:33;;;;;;;0.10;0.10;;;;;;;;;;5062835;28;20231;-71
2022/04/30 03:41:59;;;;;;;0.10;0.10;;;;;;;;;;5051392;28;20242;-71
2022/04/30 03:44:26;;;;;;;0.10;0.10;;;;;;;;;;5062874;28;20210;-71
2022/04/30 03:46:52;;;;;;;0.10;0.10;;;;;;;;;;5051355;28;20634;-72
2022/04/30 03:49:18;;;;;;;0.10;0.10;;;;;;;;;;5062637;28;20212;-71
2022/04/30 03:51:44;;;;;;;0.10;0.10;;;;;;;;;;5051693;28;20301;-71
2022/04/30 03:54:12;;;;;;;0.10;0.10;;;;;;;;;;5062420;28;20230;-71
2022/04/30 03:56:38;;;;;;;0.10;0.10;;;;;;;;;;5051622;28;20393;-71
2022/04/30 03:59:04;;;;;;;0.10;0.10;;;;;;;;;;5062505;28;20249;-71
2022/04/30 04:01:32;;;;;;;0.10;0.10;;;;;;;;;;5051292;28;20307;-70
2022/04/30 04:04:00;;;;;;;0.10;0.10;;;;;;;;;;5061938;28;20447;-71
2022/04/30 04:06:26;;;;;;;0.10;0.10;;;;;;;;;;5051334;28;20485;-72
2022/04/30 04:08:53;;;;;;;0.10;0.10;;;;;;;;;;5061779;28;20235;-71
2022/04/30 04:11:22;;;;;;;0.10;0.10;;;;;;;;;;5051540;28;20480;-71
2022/04/30 04:19:18;;;;;;;0.10;0.10;;;;;;;;;;5062129;28;20454;-72
2022/04/30 04:21:44;;;;;;;0.10;0.10;;;;;;;;;;5051191;28;20253;-72
2022/04/30 04:26:56;;;;;;;0.10;0.10;;;;;;;;;;5051109;28;20250;-72
2022/04/30 04:29:22;;;;;;;0.10;0.10;;;;;;;;;;5061965;28;20207;-71
2022/04/30 04:31:48;;;;;;;0.10;0.10;;;;;;;;;;5051020;28;20249;-71
2022/04/30 04:34:14;;;;;;;0.10;0.10;;;;;;;;;;5065793;28;20229;-71
2022/04/30 04:36:42;;;;;;;0.10;0.10;;;;;;;;;;5054781;28;20496;-71
2022/04/30 04:39:10;;;;;;;0.10;0.10;;;;;;;;;;5065517;28;20507;-71
2022/04/30 04:41:37;;;;;;;0.10;0.10;;;;;;;;;;5054490;28;20240;-71
2022/04/30 04:44:04;;;;;;;0.10;0.10;;;;;;;;;;5065402;28;20208;-72
2022/04/30 04:46:31;;;;;;;0.10;0.10;;;;;;;;;;5054604;28;20426;-71
2022/04/30 04:48:57;;;;;;;0.10;0.10;;;;;;;;;;5064989;28;20226;-71
2022/04/30 04:51:23;;;;;;;0.10;0.10;;;;;;;;;;5054488;28;20243;-71
2022/04/30 04:53:50;;;;;;;0.10;0.10;;;;;;;;;;5065139;28;20211;-71
2022/04/30 04:56:16;;;;;;;0.10;0.10;;;;;;;;;;5054503;28;20322;-71
2022/04/30 04:58:42;;;;;;;0.00;0.00;;;;;;;;;;5064705;28;20245;-71
2022/04/30 05:01:10;;;;;;;0.10;0.10;;;;;;;;;;5054449;28;20304;-72
2022/04/30 05:03:36;;;;;;;0.10;0.10;;;;;;;;;;5064739;28;20214;-72
2022/04/30 05:06:02;;;;;;;0.10;0.10;;;;;;;;;;5054576;28;20246;-71
2022/04/30 05:08:29;;;;;;;0.10;0.10;;;;;;;;;;5064241;28;20477;-71
2022/04/30 05:10:55;;;;;;;0.10;0.10;;;;;;;;;;5054346;28;20303;-73
2022/04/30 05:13:21;;;;;;;0.10;0.10;;;;;;;;;;5064426;28;20405;-72
2022/04/30 05:15:47;;;;;;;0.10;0.10;;;;;;;;;;5054552;28;20243;-71
2022/04/30 05:18:15;;;;;;;0.10;0.10;;;;;;;;;;5064248;28;20709;-70
2022/04/30 05:20:41;;;;;;;0.10;0.10;;;;;;;;;;5054577;28;20432;-71
2022/04/30 05:23:08;;;;;;;0.10;0.10;;;;;;;;;;5064103;28;20234;-72
2022/04/30 05:25:35;;;;;;;0.10;0.10;;;;;;;;;;5054412;28;20243;-72
2022/04/30 05:28:01;;;;;;;0.10;0.10;;;;;;;;;;5063792;28;20270;-71
2022/04/30 05:30:27;;;;;;;0.10;0.10;;;;;;;;;;5054627;28;20243;-72
2022/04/30 05:32:54;;;;;;;0.10;0.10;;;;;;;;;;5063862;28;20226;-72
2022/04/30 05:35:21;;;;;;;0.10;0.10;;;;;;;;;;5054263;28;20332;-71
2022/04/30 05:37:47;;;;;;;0.10;0.10;;;;;;;;;;5063869;28;20218;-72
2022/04/30 05:40:14;;;;;;;0.10;0.10;;;;;;;;;;5054554;28;20437;-72
2022/04/30 05:42:40;;;;;;;0.10;0.10;;;;;;;;;;5063747;28;20268;-71
2022/04/30 05:45:07;;;;;;;0.10;0.10;;;;;;;;;;5054504;28;20229;-72
2022/04/30 05:47:33;;;;;;;0.10;0.10;;;;;;;;;;5063363;28;20236;-72
2022/04/30 05:49:59;;;;;;;0.10;0.10;;;;;;;;;;5064476;28;20507;-72
2022/04/30 05:52:27;;;;;;;0.10;0.10;;;;;;;;;;5052994;28;20243;-71
2022/04/30 05:54:53;;;;;;;0.10;0.10;;;;;;;;;;5064396;28;20529;-71
2022/04/30 05:57:19;;;;;;;0.10;0.10;;;;;;;;;;5052841;28;20240;-71
2022/04/30 05:59:46;;;;;;;0.10;0.10;;;;;;;;;;5064013;28;20204;-71
2022/04/30 06:02:12;;;;;;;0.10;0.10;;;;;;;;;;5052811;28;20256;-71
2022/04/30 06:04:38;;;;;;;0.10;0.10;;;;;;;;;;5064305;28;20537;-72
2022/04/30 06:07:04;;;;;;;0.00;0.00;;;;;;;;;;5052695;28;20250;-71
2022/04/30 06:09:32;;;;;;;0.10;0.10;;;;;;;;;;5063707;28;20452;-71
2022/04/30 06:11:58;;;;;;;0.10;0.10;;;;;;;;;;5052773;28;20239;-71
2022/04/30 06:14:24;;;;;;;0.10;0.10;;;;;;;;;;5064034;28;20435;-72
2022/04/30 06:16:51;;;;;;;0.10;0.10;;;;;;;;;;5052582;28;20243;-73
2022/04/30 06:19:17;;;;;;;0.10;0.10;;;;;;;;;;5063744;28;20272;-72
2022/04/30 06:21:45;;;;;;;0.10;0.10;;;;;;;;;;5052819;28;20243;-72
2022/04/30 06:24:11;;;;;;;0.10;0.10;;;;;;;;;;5063636;28;20209;-72
2022/04/30 06:26:39;;;;;;;0.10;0.10;;;;;;;;;;5052778;28;20298;-71
2022/04/30 06:29:05;;;;;;;0.10;0.10;;;;;;;;;;5063444;28;20256;-72
2022/04/30 06:31:31;;;;;;;0.10;0.10;;;;;;;;;;5052502;28;20566;-72
2022/04/30 06:33:58;;;;;;;0.10;0.10;;;;;;;;;;5063041;28;20219;-72
2022/04/30 06:36:24;;;;;;;0.10;0.10;;;;;;;;;;5052749;28;20448;-71
2022/04/30 06:38:50;;;;;;;0.10;0.10;;;;;;;;;;5063231;28;20214;-72
2022/04/30 06:41:17;;;;;;;0.10;0.10;;;;;;;;;;5052576;28;20242;-71
2022/04/30 06:43:44;;;;;;;0.10;0.10;;;;;;;;;;5062845;28;20208;-72
2022/04/30 06:46:11;;;;;;;0.10;0.10;;;;;;;;;;5052472;28;20297;-72
2022/04/30 06:48:37;;;;;;;0.10;0.10;;;;;;;;;;5062878;28;20234;-71
2022/04/30 06:51:04;;;;;;;0.10;0.10;;;;;;;;;;5052659;28;20243;-71
2022/04/30 06:59:04;;;;;;;0.00;0.00;;;;;;;;;;5062797;28;20200;-71
2022/04/30 07:01:38;;;;;;;0.10;0.10;;;;;;;;;;5052303;28;20253;-70
2022/04/30 07:04:05;;;;;;;0.03;0.03;;;;;;;;;;5062963;28;20540;-71
2022/04/30 07:06:31;;;;;;;0.00;0.00;;;;;;;;;;5052038;28;20249;-71
2022/04/30 07:08:58;;;;;;;0.10;0.10;;;;;;;;;;5062349;28;20230;-71
2022/04/30 07:11:25;;;;;;;0.10;0.10;;;;;;;;;;5052017;28;20519;-72
2022/04/30 07:13:51;;;;;;;0.10;0.10;;;;;;;;;;5062296;28;20276;-72
2022/04/30 07:16:19;;;;;;;0.10;0.10;;;;;;;;;;5051899;28;20250;-71
2022/04/30 07:18:45;;;;;;;0.10;0.10;;;;;;;;;;5062641;28;20270;-71
2022/04/30 07:21:11;;;;;;;0.10;0.10;;;;;;;;;;5052181;28;20492;-71
2022/04/30 07:23:38;;;;;;;0.00;0.00;;;;;;;;;;5062273;28;20241;-71
2022/04/30 07:26:04;;;;;;;0.10;0.10;;;;;;;;;;5051930;28;20266;-71
2022/04/30 07:28:33;;;;;;;0.10;0.10;;;;;;;;;;5062286;28;20546;-72
2022/04/30 07:31:00;;;;;;;0.10;0.10;;;;;;;;;;5052184;28;20247;-71
2022/04/30 07:33:27;;;;;;;0.00;0.00;;;;;;;;;;5062375;28;20204;-71
2022/04/30 07:35:54;;;;;;;0.10;0.10;;;;;;;;;;5052289;28;20289;-72
2022/04/30 07:38:20;;;;;;;0.10;0.10;;;;;;;;;;5062200;28;20491;-72
2022/04/30 07:40:47;;;;;;;0.00;0.00;;;;;;;;;;5052066;28;20274;-71
2022/04/30 07:43:15;;;;;;;0.10;0.10;;;;;;;;;;5061946;28;20207;-72
2022/04/30 07:45:41;;;;;;;0.00;0.00;;;;;;;;;;5052310;28;20741;-71
2022/04/30 07:48:08;;;;;;;0.10;0.10;;;;;;;;;;5061823;28;20208;-72
2022/04/30 07:50:36;;;;;;;0.10;0.10;;;;;;;;;;5052197;28;20245;-71
2022/04/30 07:53:02;;;;;;;0.10;0.10;;;;;;;;;;5061483;28;20210;-72
2022/04/30 07:55:29;;;;;;;0.07;0.07;;;;;;;;;;5052343;28;20290;-72
2022/04/30 07:57:55;;;;;;;0.00;0.00;;;;;;;;;;5061419;28;20250;-72
2022/04/30 08:00:21;;;;;;;0.10;0.10;;;;;;;;;;5052534;28;20511;-72
2022/04/30 08:02:48;;;;;;;0.00;0.00;;;;;;;;;;5061462;28;20200;-72
2022/04/30 08:05:14;;;;;;;0.07;0.07;;;;;;;;;;5052469;28;20208;-71
2022/04/30 08:07:44;;;;;;;0.10;0.10;;;;;;;;;;5062471;28;20300;-73
2022/04/30 08:10:10;;;;;;;0.10;0.10;;;;;;;;;;5056083;28;20220;-72
2022/04/30 08:12:37;;;;;;;0.00;0.00;;;;;;;;;;5064990;28;20503;-71
2022/04/30 08:15:04;;;;;;;0.00;0.00;;;;;;;;;;5066476;28;20209;-72
2022/04/30 08:17:32;;;;;;;0.10;0.10;;;;;;;;;;5037864;28;20211;-72
2022/04/30 08:19:58;;;;;;;0.07;0.07;;;;;;;;;;5066236;28;20257;-72
2022/04/30 08:22:25;;;;;;;0.10;0.10;;;;;;;;;;5054693;28;20262;-71
2022/04/30 08:24:52;;;;;;;0.10;0.10;;;;;;;;;;5065569;28;20205;-72
2022/04/30 08:27:18;;;;;;;0.10;0.10;;;;;;;;;;5054398;28;20271;-72
2022/04/30 08:29:45;;;;;;;0.00;0.00;;;;;;;;;;5065938;28;20266;-75
2022/04/30 08:32:11;;;;;;;0.10;0.10;;;;;;;;;;5054185;28;20247;-74
2022/04/30 08:34:38;;;;;;;0.00;0.00;;;;;;;;;;5066089;28;20354;-76
2022/04/30 08:37:04;;;;;;;0.10;0.10;;;;;;;;;;5054419;28;20250;-75
2022/04/30 08:39:31;;;;;;;0.10;0.10;;;;;;;;;;5065459;28;20224;-75
2022/04/30 08:42:01;;;;;;;0.10;0.10;;;;;;;;;;5054486;28;20473;-75
2022/04/30 08:44:27;;;;;;;0.10;0.10;;;;;;;;;;5065528;28;20361;-74
2022/04/30 08:46:56;;;;;;;0.00;0.00;;;;;;;;;;5055347;28;20253;-78
2022/04/30 08:49:23;;;;;;;0.10;0.10;;;;;;;;;;5065572;28;20252;-73
2022/04/30 08:51:49;;;;;;;0.10;0.10;;;;;;;;;;5054088;28;20268;-73
2022/04/30 08:54:15;;;;;;;0.10;0.10;;;;;;;;;;5065160;28;20486;-74
2022/04/30 08:56:51;;;;;;;0.10;0.10;;;;;;;;;;5054226;28;20245;-72
2022/04/30 08:59:19;;;;;;;0.10;0.10;;;;;;;;;;5065470;28;20250;-75
2022/04/30 09:01:46;;;;;;;0.03;0.03;;;;;;;;;;5054502;28;20249;-78
2022/04/30 09:04:12;;;;;;;0.10;0.10;;;;;;;;;;5065056;28;20556;-75
2022/04/30 09:06:44;;;;;;;0.20;0.20;;;;;;;;;;5053922;28;20307;-74
2022/04/30 09:09:10;;;;;;;0.10;0.10;;;;;;;;;;5064711;28;20239;-72
2022/04/30 09:11:38;;;;;;;0.10;0.10;;;;;;;;;;5053833;28;20241;-72
2022/04/30 09:14:04;;;;;;;0.10;0.10;;;;;;;;;;5064701;28;20205;-72
2022/04/30 09:16:32;;;;;;;0.10;0.10;;;;;;;;;;5053686;28;20248;-70
2022/04/30 09:19:01;;;;;;;0.10;0.10;;;;;;;;;;5064193;28;20388;-72
2022/04/30 09:21:28;;;;;;;0.10;0.10;;;;;;;;;;5053548;28;20245;-73
2022/04/30 09:24:02;;;;;;;0.10;0.10;;;;;;;;;;5064281;28;20208;-74
2022/04/30 09:26:38;;;;;;;0.10;0.10;;;;;;;;;;5053688;28;20245;-74
2022/04/30 09:29:09;;;;;;;0.10;0.10;;;;;;;;;;5064276;28;20230;-72
2022/04/30 09:31:40;;;;;;;0.10;0.10;;;;;;;;;;5053279;28;20347;-72
2022/04/30 09:37:41;;;;;;;0.10;0.10;;;;;;;;;;5064566;28;20513;-73
2022/04/30 09:39:36;;;;;;;0.10;0.10;;;;;;;;;;5064623;28;20554;-74
2022/04/30 09:42:03;;;;;;;0.10;0.10;;;;;;;;;;5052829;28;20308;-71
2022/04/30 09:44:29;;;;;;;0.00;0.00;;;;;;;;;;5064359;28;20501;-71
2022/04/30 09:46:57;;;;;;;0.00;0.00;;;;;;;;;;5052896;28;20250;-74
2022/04/30 09:54:52;;;;;;;0.10;0.10;;;;;;;;;;5064006;28;20278;-76
2022/04/30 09:57:19;;;;;;;0.10;0.10;;;;;;;;;;5052839;28;20296;-75
2022/04/30 09:59:47;;;;;;;0.10;0.10;;;;;;;;;;5064457;28;20228;-74
2022/04/30 10:02:16;;;;;;;0.00;0.00;;;;;;;;;;5052687;28;20245;-74
2022/04/30 10:04:43;;;;;;;0.00;0.00;;;;;;;;;;5064295;28;20212;-73
2022/04/30 10:07:10;;;;;;;0.10;0.10;;;;;;;;;;5052529;28;20536;-72
2022/04/30 10:09:38;;;;;;;0.00;0.00;;;;;;;;;;5064142;28;20239;-72
2022/04/30 10:12:07;;;;;;;0.00;0.00;;;;;;;;;;5052697;28;20253;-72
2022/04/30 10:14:45;;;;;;;0.00;0.00;;;;;;;;;;5064229;28;20238;-73
2022/04/30 10:17:16;;;;;;;0.10;0.10;;;;;;;;;;5052400;28;20285;-74
2022/04/30 10:19:45;;;;;;;0.05;0.05;;;;;;;;;;5064243;28;20365;-74
2022/04/30 10:22:15;;;;;;;0.05;0.05;;;;;;;;;;5052514;28;20560;-72
2022/04/30 10:24:42;;;;;;;0.10;0.10;;;;;;;;;;5063851;28;20419;-73
2022/04/30 10:27:08;;;;;;;0.10;0.10;;;;;;;;;;5052532;28;20241;-71
2022/04/30 10:29:34;;;;;;;0.10;0.10;;;;;;;;;;5063136;28;20228;-74
2022/04/30 10:32:01;;;;;;;0.00;0.00;;;;;;;;;;5051754;28;20242;-75
2022/04/30 10:34:31;;;;;;;0.10;0.10;;;;;;;;;;5063738;28;20306;-74
2022/04/30 10:37:00;;;;;;;0.00;0.00;;;;;;;;;;5052100;28;20240;-71
2022/04/30 10:39:27;;;;;;;0.00;0.00;;;;;;;;;;5063417;28;20220;-74
2022/04/30 10:41:53;;;;;;;0.00;0.00;;;;;;;;;;5052139;28;20237;-75
2022/04/30 10:44:27;;;;;;;0.00;0.00;;;;;;;;;;5063126;28;20277;-75
2022/04/30 10:46:54;;;;;;;0.10;0.10;;;;;;;;;;5051776;28;20277;-75
2022/04/30 10:49:20;;;;;;;0.00;0.00;;;;;;;;;;5063107;28;20455;-74
2022/04/30 10:51:47;;;;;;;0.00;0.00;;;;;;;;;;5051931;28;20291;-75
2022/04/30 10:54:18;;;;;;;0.10;0.10;;;;;;;;;;5063232;28;20277;-75
2022/04/30 10:56:44;;;;;;;0.08;0.08;;;;;;;;;;5052003;28;20247;-75
2022/04/30 10:59:11;;;;;;;0.10;0.10;;;;;;;;;;5062670;28;20201;-75
2022/04/30 11:01:37;;;;;;;0.00;0.00;;;;;;;;;;5052104;28;20304;-74
2022/04/30 11:04:07;;;;;;;0.00;0.00;;;;;;;;;;5062819;28;20515;-73
2022/04/30 11:06:33;;;;;;;0.00;0.00;;;;;;;;;;5051807;28;20248;-73
2022/04/30 11:09:01;;;;;;;0.00;0.00;;;;;;;;;;5062068;28;20227;-74
2022/04/30 11:11:29;;;;;;;0.10;0.10;;;;;;;;;;5051848;28;20246;-75
2022/04/30 11:13:56;;;;;;;0.00;0.00;;;;;;;;;;5062818;28;20301;-73
2022/04/30 11:16:28;;;;;;;0.08;0.08;;;;;;;;;;5052129;28;20569;-75
2022/04/30 11:18:57;;;;;;;0.00;0.00;;;;;;;;;;5062561;28;20210;-74
2022/04/30 11:21:29;;;;;;;0.00;0.00;;;;;;;;;;5051584;28;20244;-75
2022/04/30 11:23:55;;;;;;;0.00;0.00;;;;;;;;;;5062820;28;20204;-75
2022/04/30 11:26:22;;;;;;;0.10;0.10;;;;;;;;;;5051915;28;20698;-75
2022/04/30 11:28:49;;;;;;;0.00;0.00;;;;;;;;;;5062598;28;20204;-75
2022/04/30 11:31:19;;;;;;;0.10;0.10;;;;;;;;;;5051675;28;20242;-75
2022/04/30 11:33:45;;;;;;;0.00;0.00;;;;;;;;;;5062128;28;20208;-76
2022/04/30 11:36:12;;;;;;;0.08;0.08;;;;;;;;;;5051643;28;20282;-75
2022/04/30 11:38:38;;;;;;;0.08;0.08;;;;;;;;;;5062142;28;20270;-74
2022/04/30 11:41:05;;;;;;;0.05;0.05;;;;;;;;;;5051757;28;20313;-75
2022/04/30 11:43:31;;;;;;;0.10;0.10;;;;;;;;;;5066172;28;20427;-76
2022/04/30 11:46:01;;;;;;;0.00;0.00;;;;;;;;;;5055894;28;20614;-72
2022/04/30 11:48:32;;;;;;;0.00;0.00;;;;;;;;;;5066179;28;20251;-72
2022/04/30 11:50:58;;;;;;;0.00;0.00;;;;;;;;;;5056075;28;20240;-75
2022/04/30 11:53:25;;;;;;;0.00;0.00;;;;;;;;;;5066001;28;20249;-74
2022/04/30 11:55:51;;;;;;;0.00;0.00;;;;;;;;;;5055467;28;20239;-71
2022/04/30 11:58:18;;;;;;;0.10;0.10;;;;;;;;;;5065961;28;20429;-71
2022/04/30 12:00:44;;;;;;;0.05;0.05;;;;;;;;;;5056239;28;20474;-76
2022/04/30 12:03:11;;;;;;;0.00;0.00;;;;;;;;;;5065282;28;20247;-73
2022/04/30 12:05:43;;;;;;;0.00;0.00;;;;;;;;;;5055751;28;20533;-78
2022/04/30 12:08:09;;;;;;;0.00;0.00;;;;;;;;;;5065240;28;20216;-71
2022/04/30 12:10:36;;;;;;;0.00;0.00;;;;;;;;;;5055718;28;20236;-71
2022/04/30 12:13:02;;;;;;;0.00;0.00;;;;;;;;;;5064904;28;20207;-71
2022/04/30 12:15:29;;;;;;;0.00;0.00;;;;;;;;;;5055805;28;20238;-70
2022/04/30 12:26:25;;;;;;;0.10;0.10;;;;;;;;;;5054903;28;20274;-70
2022/04/30 12:28:52;;;;;;;0.00;0.00;;;;;;;;;;5064899;28;20267;-70
2022/04/30 12:31:19;;;;;;;0.00;0.00;;;;;;;;;;5054678;28;20242;-70
2022/04/30 12:33:48;;;;;;;0.00;0.00;;;;;;;;;;5065429;28;20212;-69
2022/04/30 12:36:16;;;;;;;0.10;0.10;;;;;;;;;;5054814;28;20259;-70
2022/04/30 12:38:52;;;;;;;0.10;0.10;;;;;;;;;;5065206;28;20211;-70
2022/04/30 12:41:18;;;;;;;0.10;0.10;;;;;;;;;;5054305;28;20240;-70
2022/04/30 12:43:44;;;;;;;0.00;0.00;;;;;;;;;;5065148;28;20500;-71
2022/04/30 12:46:19;;;;;;;0.10;0.10;;;;;;;;;;5054422;28;20321;-71
2022/04/30 12:48:45;;;;;;;0.10;0.10;;;;;;;;;;5064931;28;20257;-71
2022/04/30 12:51:11;;;;;;;0.10;0.10;;;;;;;;;;5054461;28;20241;-70
2022/04/30 12:53:39;;;;;;;0.00;0.00;;;;;;;;;;5063828;28;20212;-69
2022/04/30 12:56:05;;;;;;;0.10;0.10;;;;;;;;;;5054537;28;20236;-71
2022/04/30 12:58:32;;;;;;;0.00;0.00;;;;;;;;;;5064535;28;20276;-70
2022/04/30 13:00:58;;;;;;;0.10;0.10;;;;;;;;;;5054733;28;20266;-70
2022/04/30 13:03:25;;;;;;;0.00;0.00;;;;;;;;;;5064403;28;20223;-70
2022/04/30 13:05:51;;;;;;;0.00;0.00;;;;;;;;;;5054515;28;20326;-70
2022/04/30 13:08:17;;;;;;;0.00;0.00;;;;;;;;;;5064105;28;20206;-70
2022/04/30 13:13:32;;;;;;;0.00;0.00;;;;;;;;;;5064238;28;20224;-70
2022/04/30 13:15:58;;;;;;;0.00;0.00;;;;;;;;;;5053929;28;20300;-70
2022/04/30 13:18:24;;;;;;;0.08;0.08;;;;;;;;;;5064044;28;20262;-69
2022/04/30 13:20:51;;;;;;;0.00;0.00;;;;;;;;;;5054063;28;20243;-69
2022/04/30 13:23:17;;;;;;;0.00;0.00;;;;;;;;;;5064082;28;20210;-70
2022/04/30 13:25:43;;;;;;;0.10;0.10;;;;;;;;;;5054539;28;20240;-70
2022/04/30 13:28:11;;;;;;;0.00;0.00;;;;;;;;;;5063568;28;20484;-69
2022/04/30 13:30:37;;;;;;;0.00;0.00;;;;;;;;;;5054252;28;20453;-69
2022/04/30 13:33:04;;;;;;;0.00;0.00;;;;;;;;;;5063610;28;20216;-69
2022/04/30 13:35:31;;;;;;;0.00;0.00;;;;;;;;;;5054101;28;20267;-70
2022/04/30 13:37:57;;;;;;;0.00;0.00;;;;;;;;;;5063521;28;20210;-69
2022/04/30 13:40:23;;;;;;;0.00;0.00;;;;;;;;;;5054006;28;20252;-69
2022/04/30 13:42:49;;;;;;;0.00;0.00;;;;;;;;;;5063702;28;20380;-69
2022/04/30 13:45:17;;;;;;;0.00;0.00;;;;;;;;;;5053947;28;20377;-69
2022/04/30 13:47:44;;;;;;;0.10;0.10;;;;;;;;;;5063358;28;20207;-68
2022/04/30 13:50:11;;;;;;;0.00;0.00;;;;;;;;;;5054524;28;20414;-70
2022/04/30 13:52:38;;;;;;;0.10;0.10;;;;;;;;;;5063677;28;20245;-70
2022/04/30 13:55:07;;;;;;;0.00;0.00;;;;;;;;;;5062112;28;20197;-70
2022/04/30 13:57:33;;;;;;;0.00;0.00;;;;;;;;;;5062858;28;20219;-69
2022/04/30 13:59:59;;;;;;;0.00;0.00;;;;;;;;;;5064437;28;20482;-69
2022/04/30 14:02:27;;;;;;;0.08;0.08;;;;;;;;;;5052625;28;20363;-70
2022/04/30 14:04:53;;;;;;;0.03;0.03;;;;;;;;;;5064292;28;20535;-69
2022/04/30 14:07:19;;;;;;;0.10;0.10;;;;;;;;;;5052447;28;20252;-70
2022/04/30 14:09:45;;;;;;;0.00;0.00;;;;;;;;;;5064290;28;20206;-70
2022/04/30 14:12:12;;;;;;;0.00;0.00;;;;;;;;;;5052406;28;20456;-71
2022/04/30 14:14:55;;;;;;;0.00;0.00;;;;;;;;;;5064063;28;20394;-71
2022/04/30 14:20:08;;;;;;;0.00;0.00;;;;;;;;;;5056315;28;20379;-71
2022/04/30 14:22:34;;;;;;;0.00;0.00;;;;;;;;;;5062783;28;20221;-70
2022/04/30 14:25:00;;;;;;;0.10;0.10;;;;;;;;;;5063860;28;20209;-70
2022/04/30 14:27:27;;;;;;;0.00;0.00;;;;;;;;;;5052228;28;20238;-70
2022/04/30 14:29:54;;;;;;;0.00;0.00;;;;;;;;;;5063701;28;20228;-71
2022/04/30 14:32:20;;;;;;;0.00;0.00;;;;;;;;;;5052330;28;20243;-70
2022/04/30 14:34:46;;;;;;;0.00;0.00;;;;;;;;;;5063711;28;20281;-71
2022/04/30 14:37:14;;;;;;;0.00;0.00;;;;;;;;;;5051910;28;20246;-72
2022/04/30 14:39:41;;;;;;;0.00;0.00;;;;;;;;;;5063679;28;20453;-71
2022/04/30 14:42:07;;;;;;;0.08;0.08;;;;;;;;;;5052051;28;20241;-70
2022/04/30 14:44:34;;;;;;;0.00;0.00;;;;;;;;;;5063546;28;20253;-71
2022/04/30 14:47:02;;;;;;;0.00;0.00;;;;;;;;;;5052017;28;20240;-70
2022/04/30 14:49:29;;;;;;;0.00;0.00;;;;;;;;;;5062971;28;20207;-71
2022/04/30 14:51:56;;;;;;;0.10;0.10;;;;;;;;;;5051878;28;20584;-70
2022/04/30 14:54:23;;;;;;;0.08;0.08;;;;;;;;;;5063384;28;20216;-71
2022/04/30 14:56:50;;;;;;;0.00;0.00;;;;;;;;;;5052049;28;20262;-71
2022/04/30 14:59:17;;;;;;;0.00;0.00;;;;;;;;;;5063181;28;20207;-72
2022/04/30 15:01:44;;;;;;;0.00;0.00;;;;;;;;;;5051936;28;20325;-72
2022/04/30 15:04:11;;;;;;;0.00;0.00;;;;;;;;;;5063022;28;20241;-69
2022/04/30 15:06:37;;;;;;;0.03;0.03;;;;;;;;;;5051818;28;20242;-71
2022/04/30 15:09:03;;;;;;;0.00;0.00;;;;;;;;;;5062699;28;20511;-75
2022/04/30 15:11:31;;;;;;;0.00;0.00;;;;;;;;;;5052075;28;20248;-72
2022/04/30 15:13:57;;;;;;;0.10;0.10;;;;;;;;;;5062792;28;20239;-74
2022/04/30 15:16:24;;;;;;;0.00;0.00;;;;;;;;;;5051630;28;20260;-76
2022/04/30 15:18:50;;;;;;;0.00;0.00;;;;;;;;;;5062824;28;20203;-78
2022/04/30 15:21:17;;;;;;;0.08;0.08;;;;;;;;;;5051887;28;20248;-75
2022/04/30 15:23:43;;;;;;;0.10;0.10;;;;;;;;;;5062529;28;20387;-72
2022/04/30 15:26:10;;;;;;;0.00;0.00;;;;;;;;;;5051846;28;20323;-75
2022/04/30 15:28:37;;;;;;;0.20;0.20;;;;;;;;;;5062105;28;20222;-76
2022/04/30 15:31:04;;;;;;;0.10;0.10;;;;;;;;;;5051655;28;20245;-74
2022/04/30 15:33:30;;;;;;;0.15;0.15;;;;;;;;;;5061883;28;20212;-76
2022/04/30 15:35:56;;;;;;;0.00;0.00;;;;;;;;;;5052228;28;20513;-75